createdAt,value
2018-12-31T00:02:18.582Z,14.57
2018-12-31T00:05:06.756Z,14.00
2018-12-31T00:07:54.988Z,15.27
2018-12-31T00:10:43.269Z,15.67
2018-12-31T00:13:31.423Z,17.00
2018-12-31T00:16:19.391Z,17.77
2018-12-31T00:19:07.586Z,17.53
2018-12-31T00:21:55.690Z,18.37
2018-12-31T00:24:43.881Z,18.53
2018-12-31T00:27:32.190Z,17.53
2018-12-31T00:30:20.398Z,18.50
2018-12-31T00:33:08.736Z,18.57
2018-12-31T00:35:56.789Z,17.97
2018-12-31T00:38:45.124Z,19.27
2018-12-31T00:41:33.165Z,18.33
2018-12-31T00:44:21.347Z,18.90
2018-12-31T00:47:09.780Z,18.73
2018-12-31T00:49:57.867Z,18.73
2018-12-31T00:52:45.924Z,18.87
2018-12-31T00:55:36.021Z,19.40
2018-12-31T00:58:24.272Z,17.87
2018-12-31T01:01:12.307Z,20.17
2018-12-31T01:04:00.443Z,18.67
2018-12-31T01:06:48.709Z,20.87
2018-12-31T01:09:36.977Z,19.37
2018-12-31T01:12:25.263Z,19.00
2018-12-31T01:15:13.526Z,20.47
2018-12-31T01:18:01.373Z,20.67
2018-12-31T01:20:49.554Z,19.87
2018-12-31T01:23:37.514Z,20.13
2018-12-31T01:26:25.666Z,21.27
2018-12-31T01:29:13.656Z,19.53
2018-12-31T01:32:02.221Z,20.80
2018-12-31T01:34:50.385Z,20.30
2018-12-31T01:37:38.706Z,19.17
2018-12-31T01:40:27.113Z,18.87
2018-12-31T01:43:15.585Z,19.60
2018-12-31T01:46:03.421Z,21.57
2018-12-31T01:48:51.332Z,20.53
2018-12-31T01:51:39.458Z,20.57
2018-12-31T01:54:28.480Z,19.93
2018-12-31T01:57:16.907Z,18.33
2018-12-31T02:00:05.445Z,20.03
2018-12-31T02:02:54.100Z,19.47
2018-12-31T02:05:42.057Z,20.30
2018-12-31T02:08:30.327Z,20.43
2018-12-31T02:11:18.441Z,18.50
2018-12-31T02:14:06.558Z,21.23
2018-12-31T02:16:54.888Z,20.87
2018-12-31T02:19:43.133Z,19.60
2018-12-31T02:22:31.585Z,20.00
2018-12-31T02:25:20.110Z,20.30
2018-12-31T02:28:09.250Z,20.60
2018-12-31T02:30:57.638Z,22.17
2018-12-31T02:33:46.095Z,22.80
2018-12-31T02:36:34.236Z,23.23
2018-12-31T02:39:21.899Z,22.27
2018-12-31T02:42:10.778Z,21.57
2018-12-31T02:44:59.022Z,22.20
2018-12-31T02:47:47.459Z,22.60
2018-12-31T02:50:35.673Z,23.67
2018-12-31T02:53:23.793Z,22.90
2018-12-31T02:56:12.264Z,21.80
2018-12-31T02:59:00.724Z,24.27
2018-12-31T03:01:48.605Z,24.30
2018-12-31T03:04:36.570Z,23.90
2018-12-31T03:07:24.846Z,23.33
2018-12-31T03:10:13.149Z,22.57
2018-12-31T03:13:01.623Z,22.40
2018-12-31T03:15:49.943Z,24.03
2018-12-31T03:18:38.247Z,23.07
2018-12-31T03:21:26.366Z,24.63
2018-12-31T03:24:15.111Z,24.77
2018-12-31T03:27:04.331Z,24.57
2018-12-31T03:29:52.737Z,25.90
2018-12-31T03:32:40.839Z,26.83
2018-12-31T03:35:29.001Z,27.83
2018-12-31T03:38:17.423Z,27.53
2018-12-31T03:41:05.817Z,27.57
2018-12-31T03:43:53.985Z,28.77
2018-12-31T03:46:42.308Z,26.13
2018-12-31T03:49:30.560Z,26.90
2018-12-31T03:52:19.022Z,25.67
2018-12-31T03:55:07.022Z,26.47
2018-12-31T03:57:54.892Z,26.50
2018-12-31T04:00:42.854Z,26.07
2018-12-31T04:03:30.822Z,24.63
2018-12-31T04:06:19.098Z,25.73
2018-12-31T04:09:07.339Z,24.53
2018-12-31T04:11:55.787Z,26.00
2018-12-31T04:14:44.188Z,23.67
2018-12-31T04:17:32.576Z,23.93
2018-12-31T04:20:20.837Z,22.23
2018-12-31T04:23:08.912Z,23.37
2018-12-31T04:25:57.129Z,21.80
2018-12-31T04:28:54.132Z,21.57
2018-12-31T04:31:42.760Z,20.17
2018-12-31T04:34:30.565Z,21.07
2018-12-31T04:37:19.663Z,19.70
2018-12-31T04:40:07.832Z,20.90
2018-12-31T04:43:05.722Z,19.43
2018-12-31T04:45:53.839Z,20.53
2018-12-31T04:48:41.897Z,18.50
2018-12-31T04:51:33.445Z,21.37
2018-12-31T04:54:21.881Z,19.73
2018-12-31T04:57:10.172Z,19.40
2018-12-31T04:59:58.301Z,19.33
2018-12-31T05:02:46.346Z,19.30
2018-12-31T05:05:34.828Z,18.77
2018-12-31T05:08:23.242Z,18.37
2018-12-31T05:11:11.549Z,17.23
2018-12-31T05:13:59.859Z,17.87
2018-12-31T05:16:48.128Z,16.87
2018-12-31T05:19:36.321Z,15.73
2018-12-31T05:22:24.611Z,16.83
2018-12-31T05:25:13.002Z,16.43
2018-12-31T05:28:00.951Z,14.70
2018-12-31T05:30:49.508Z,15.47
2018-12-31T05:33:37.535Z,14.97
2018-12-31T05:36:25.576Z,16.77
2018-12-31T05:39:13.752Z,16.40
2018-12-31T05:42:01.565Z,17.50
2018-12-31T05:44:49.670Z,17.70
2018-12-31T05:47:37.793Z,17.30
2018-12-31T05:50:25.966Z,18.77
2018-12-31T05:53:13.811Z,19.00
2018-12-31T05:56:02.163Z,17.90
2018-12-31T05:58:50.492Z,18.30
2018-12-31T06:01:38.697Z,19.93
2018-12-31T06:04:27.093Z,20.47
2018-12-31T06:07:15.101Z,20.40
2018-12-31T06:10:03.288Z,20.07
2018-12-31T06:12:51.694Z,20.60
2018-12-31T06:15:40.010Z,20.63
2018-12-31T06:18:28.329Z,19.30
2018-12-31T06:21:16.475Z,19.93
2018-12-31T06:24:04.600Z,20.57
2018-12-31T06:26:52.620Z,19.97
2018-12-31T06:29:40.882Z,18.77
2018-12-31T06:32:29.258Z,18.77
2018-12-31T06:35:17.104Z,18.10
2018-12-31T06:38:05.507Z,16.77
2018-12-31T06:40:53.891Z,17.70
2018-12-31T06:43:42.087Z,18.50
2018-12-31T06:46:30.268Z,17.20
2018-12-31T06:49:18.557Z,16.17
2018-12-31T06:52:06.713Z,17.80
2018-12-31T06:54:54.797Z,15.97
2018-12-31T06:57:42.846Z,16.93
2018-12-31T07:00:31.032Z,16.93
2018-12-31T07:03:19.435Z,17.60
2018-12-31T07:06:07.701Z,19.63
2018-12-31T07:08:55.679Z,20.23
2018-12-31T07:11:43.843Z,21.77
2018-12-31T07:14:32.359Z,21.17
2018-12-31T07:17:20.581Z,22.23
2018-12-31T07:20:08.777Z,23.03
2018-12-31T07:22:56.796Z,23.73
2018-12-31T07:25:45.162Z,21.17
2018-12-31T07:28:32.932Z,21.03
2018-12-31T07:31:21.468Z,19.53
2018-12-31T07:34:09.578Z,19.80
2018-12-31T07:36:57.683Z,21.10
2018-12-31T07:39:46.073Z,19.73
2018-12-31T07:42:34.527Z,19.20
2018-12-31T07:45:22.513Z,19.67
2018-12-31T07:48:10.327Z,19.57
2018-12-31T07:50:58.371Z,18.87
2018-12-31T07:53:46.529Z,17.97
2018-12-31T07:56:34.490Z,16.43
2018-12-31T07:59:22.609Z,16.77
2018-12-31T08:02:10.674Z,17.17
2018-12-31T08:04:59.016Z,17.43
2018-12-31T08:07:47.227Z,16.27
2018-12-31T08:10:35.371Z,16.37
2018-12-31T08:13:23.751Z,17.13
2018-12-31T08:16:12.070Z,17.03
2018-12-31T08:19:00.495Z,16.63
2018-12-31T08:21:48.578Z,17.50
2018-12-31T08:24:36.607Z,18.30
2018-12-31T08:27:25.076Z,16.33
2018-12-31T08:30:13.526Z,16.37
2018-12-31T08:33:01.637Z,15.43
2018-12-31T08:35:50.037Z,15.97
2018-12-31T08:38:38.153Z,14.27
2018-12-31T08:41:26.676Z,12.87
2018-12-31T08:44:14.810Z,13.90
2018-12-31T08:47:02.876Z,12.97
2018-12-31T08:49:50.983Z,11.33
2018-12-31T08:52:39.290Z,13.10
2018-12-31T08:55:27.129Z,13.03
2018-12-31T08:58:15.295Z,12.73
2018-12-31T09:01:03.807Z,12.90
2018-12-31T09:03:52.026Z,12.43
2018-12-31T09:06:40.511Z,12.27
2018-12-31T09:09:28.347Z,12.87
2018-12-31T09:12:16.522Z,14.60
2018-12-31T09:15:05.017Z,11.27
2018-12-31T09:17:53.372Z,11.03
2018-12-31T09:20:41.785Z,11.90
2018-12-31T09:23:29.608Z,10.87
2018-12-31T09:26:17.953Z,10.90
2018-12-31T09:29:06.084Z,10.67
2018-12-31T09:31:54.135Z,11.00
2018-12-31T09:34:42.484Z,10.67
2018-12-31T09:37:30.953Z,9.77
2018-12-31T09:40:20.170Z,10.87
2018-12-31T09:43:08.528Z,11.20
2018-12-31T09:45:56.607Z,11.03
2018-12-31T09:48:44.670Z,12.57
2018-12-31T09:51:32.994Z,11.23
2018-12-31T09:54:21.287Z,11.60
2018-12-31T09:57:09.656Z,11.57
2018-12-31T09:59:58.125Z,12.00
2018-12-31T10:02:45.956Z,11.73
2018-12-31T10:05:40.196Z,12.90
2018-12-31T10:08:28.077Z,11.90
2018-12-31T10:11:16.417Z,11.27
2018-12-31T10:14:04.505Z,11.70
2018-12-31T10:16:52.911Z,11.87
2018-12-31T10:19:41.723Z,10.73
2018-12-31T10:22:29.873Z,11.53
2018-12-31T10:25:18.448Z,11.73
2018-12-31T10:28:06.624Z,11.17
2018-12-31T10:30:55.246Z,12.17
2018-12-31T10:33:43.502Z,11.93
2018-12-31T10:36:31.765Z,12.10
2018-12-31T10:39:20.118Z,12.17
2018-12-31T10:42:08.205Z,12.33
2018-12-31T10:44:56.633Z,12.97
2018-12-31T10:47:44.851Z,12.37
2018-12-31T10:50:33.024Z,12.73
2018-12-31T10:53:21.185Z,12.67
2018-12-31T10:56:08.996Z,13.13
2018-12-31T10:58:57.144Z,13.30
2018-12-31T11:01:45.596Z,14.60
2018-12-31T11:04:33.720Z,14.23
2018-12-31T11:07:21.979Z,14.13
2018-12-31T11:10:09.856Z,13.93
2018-12-31T11:12:57.917Z,14.00
2018-12-31T11:15:46.338Z,13.40
2018-12-31T11:18:34.401Z,12.53
2018-12-31T11:21:22.546Z,13.77
2018-12-31T11:24:12.733Z,12.23
2018-12-31T11:27:01.526Z,12.73
2018-12-31T11:29:49.621Z,13.10
2018-12-31T11:32:37.712Z,11.97
2018-12-31T11:35:25.564Z,12.40
2018-12-31T11:38:14.003Z,10.77
2018-12-31T11:41:02.362Z,11.20
2018-12-31T11:43:50.517Z,9.87
2018-12-31T11:46:38.889Z,9.60
2018-12-31T11:49:27.400Z,9.67
2018-12-31T11:52:15.424Z,10.30
2018-12-31T11:55:03.650Z,10.00
2018-12-31T11:57:51.611Z,9.10
2018-12-31T12:00:39.701Z,8.43
2018-12-31T12:03:27.740Z,8.13
2018-12-31T12:06:16.099Z,8.53
2018-12-31T12:09:06.307Z,9.17
2018-12-31T12:11:54.806Z,7.60
2018-12-31T12:14:42.996Z,6.37
2018-12-31T12:17:31.162Z,7.53
2018-12-31T12:20:19.330Z,7.57
2018-12-31T12:23:07.430Z,5.97
2018-12-31T12:25:55.860Z,6.93
2018-12-31T12:28:46.335Z,7.20
2018-12-31T12:31:34.394Z,6.60
2018-12-31T12:34:22.404Z,5.87
2018-12-31T12:37:10.833Z,4.80
2018-12-31T12:39:59.295Z,4.40
2018-12-31T12:42:47.751Z,4.10
2018-12-31T12:45:36.068Z,5.70
2018-12-31T12:48:24.081Z,5.83
2018-12-31T12:51:12.457Z,6.03
2018-12-31T12:54:00.712Z,5.97
2018-12-31T12:56:48.999Z,7.20
2018-12-31T12:59:37.157Z,7.70
2018-12-31T13:02:25.232Z,7.33
2018-12-31T13:05:13.567Z,6.40
2018-12-31T13:08:01.609Z,6.20
2018-12-31T13:10:50.227Z,6.17
2018-12-31T13:13:38.477Z,6.33
2018-12-31T13:16:26.768Z,7.20
2018-12-31T13:19:15.646Z,6.60
2018-12-31T13:22:03.644Z,6.83
2018-12-31T13:24:52.562Z,6.50
2018-12-31T13:27:40.829Z,4.90
2018-12-31T13:30:29.760Z,4.93
2018-12-31T13:33:18.118Z,3.77
2018-12-31T13:36:06.690Z,4.20
2018-12-31T13:38:55.078Z,3.47
2018-12-31T13:41:43.462Z,2.93
2018-12-31T13:44:32.031Z,3.20
2018-12-31T13:47:20.231Z,3.13
2018-12-31T13:50:08.556Z,2.57
2018-12-31T13:52:56.643Z,2.47
2018-12-31T13:55:45.085Z,2.70
2018-12-31T13:58:33.122Z,2.43
2018-12-31T14:01:21.250Z,2.20
2018-12-31T14:04:09.665Z,2.40
2018-12-31T14:06:57.675Z,2.50
2018-12-31T14:09:45.880Z,2.30
2018-12-31T14:12:34.198Z,2.20
2018-12-31T14:15:22.240Z,2.60
2018-12-31T14:18:10.242Z,2.47
2018-12-31T14:20:59.021Z,3.00
2018-12-31T14:23:47.170Z,3.20
2018-12-31T14:26:34.935Z,3.10
2018-12-31T14:29:23.017Z,3.40
2018-12-31T14:32:11.245Z,2.97
2018-12-31T14:34:59.534Z,3.37
2018-12-31T14:37:47.621Z,3.63
2018-12-31T14:40:35.718Z,2.90
2018-12-31T14:43:24.161Z,3.07
2018-12-31T14:46:12.386Z,3.20
2018-12-31T14:49:00.546Z,3.50
2018-12-31T14:51:48.595Z,4.00
2018-12-31T14:54:36.726Z,3.80
2018-12-31T14:57:25.497Z,3.90
2018-12-31T15:00:14.277Z,3.43
2018-12-31T15:03:03.020Z,3.53
2018-12-31T15:05:51.397Z,3.50
2018-12-31T15:08:39.873Z,3.47
2018-12-31T15:11:27.968Z,3.57
2018-12-31T15:14:16.381Z,4.33
2018-12-31T15:17:04.749Z,4.70
2018-12-31T15:19:52.872Z,4.80
2018-12-31T15:22:41.486Z,4.97
2018-12-31T15:25:29.790Z,5.37
2018-12-31T15:28:17.865Z,5.90
2018-12-31T15:31:06.156Z,5.53
2018-12-31T15:33:54.820Z,5.60
2018-12-31T15:36:43.078Z,5.50
2018-12-31T15:39:31.171Z,5.87
2018-12-31T15:42:19.213Z,5.57
2018-12-31T15:45:08.421Z,6.00
2018-12-31T15:47:56.767Z,7.63
2018-12-31T15:50:44.826Z,7.23
2018-12-31T15:53:33.225Z,7.93
2018-12-31T15:56:21.586Z,8.17
2018-12-31T15:59:10.264Z,9.37
2018-12-31T16:01:58.091Z,8.77
2018-12-31T16:04:46.532Z,9.53
2018-12-31T16:07:34.604Z,9.07
2018-12-31T16:10:23.212Z,9.90
2018-12-31T16:13:11.289Z,10.47
2018-12-31T16:15:59.358Z,10.43
2018-12-31T16:18:47.487Z,9.30
2018-12-31T16:21:35.593Z,10.03
2018-12-31T16:24:23.975Z,9.83
2018-12-31T16:27:12.247Z,9.00
2018-12-31T16:30:00.905Z,10.23
2018-12-31T16:32:49.334Z,10.50
2018-12-31T16:35:38.172Z,10.00
2018-12-31T16:38:26.442Z,10.00
2018-12-31T16:41:14.926Z,9.17
2018-12-31T16:44:03.798Z,9.47
2018-12-31T16:46:52.275Z,9.83
2018-12-31T16:49:40.541Z,10.30
2018-12-31T16:52:28.862Z,10.33
2018-12-31T16:55:16.701Z,13.07
2018-12-31T16:58:04.921Z,12.47
2018-12-31T17:00:53.192Z,14.40
2018-12-31T17:03:41.673Z,16.33
2018-12-31T17:06:29.974Z,16.37
2018-12-31T17:09:18.300Z,16.87
2018-12-31T17:12:06.678Z,18.60
2018-12-31T17:14:54.946Z,19.30
2018-12-31T17:17:43.245Z,22.47
2018-12-31T17:20:31.526Z,24.27
2018-12-31T17:23:19.953Z,23.13
2018-12-31T17:26:09.813Z,20.40
2018-12-31T17:28:58.149Z,22.43
2018-12-31T17:31:45.927Z,21.03
2018-12-31T17:34:34.282Z,20.83
2018-12-31T17:37:22.791Z,17.67
2018-12-31T17:40:11.283Z,19.20
2018-12-31T17:42:59.590Z,16.30
2018-12-31T17:45:48.176Z,15.77
2018-12-31T17:48:36.110Z,17.83
2018-12-31T17:51:24.961Z,16.73
2018-12-31T17:54:13.368Z,17.97
2018-12-31T17:57:01.448Z,19.23
2018-12-31T17:59:49.853Z,18.80
2018-12-31T18:02:38.295Z,21.27
2018-12-31T18:05:26.909Z,22.17
2018-12-31T18:08:15.211Z,20.27
2018-12-31T18:11:03.370Z,22.17
2018-12-31T18:13:51.697Z,20.83
2018-12-31T18:16:39.878Z,21.17
2018-12-31T18:19:28.293Z,21.47
2018-12-31T18:22:16.659Z,22.47
2018-12-31T18:25:05.085Z,22.97
2018-12-31T18:27:54.048Z,21.30
2018-12-31T18:30:42.320Z,21.20
2018-12-31T18:33:30.404Z,23.53
2018-12-31T18:36:18.925Z,21.23
2018-12-31T18:39:08.387Z,22.53
2018-12-31T18:41:56.199Z,24.93
2018-12-31T18:44:44.699Z,23.33
2018-12-31T18:47:32.812Z,21.43
2018-12-31T18:50:21.235Z,21.43
2018-12-31T18:53:09.655Z,21.10
2018-12-31T18:55:58.207Z,18.90
2018-12-31T18:58:46.488Z,18.97
2018-12-31T19:01:35.087Z,14.63
2018-12-31T19:04:23.134Z,14.83
2018-12-31T19:07:14.317Z,16.23
2018-12-31T19:10:02.088Z,18.37
2018-12-31T19:12:50.896Z,17.57
2018-12-31T19:15:39.334Z,19.33
2018-12-31T19:18:27.719Z,16.67
2018-12-31T19:21:16.436Z,15.17
2018-12-31T19:24:04.993Z,15.47
2018-12-31T19:26:53.262Z,14.47
2018-12-31T19:29:41.366Z,16.80
2018-12-31T19:32:29.882Z,16.77
2018-12-31T19:35:18.545Z,14.53
2018-12-31T19:38:06.870Z,12.77
2018-12-31T19:40:54.949Z,14.90
2018-12-31T19:43:43.002Z,12.97
2018-12-31T19:46:31.362Z,12.83
2018-12-31T19:49:19.555Z,12.93
2018-12-31T19:52:07.619Z,14.23
2018-12-31T19:54:58.394Z,14.60
2018-12-31T19:57:45.219Z,15.23
2018-12-31T20:00:33.492Z,14.90
2018-12-31T20:03:21.663Z,16.07
2018-12-31T20:06:09.741Z,19.13
2018-12-31T20:08:57.962Z,17.30
2018-12-31T20:11:46.390Z,16.23
2018-12-31T20:14:34.549Z,16.37
2018-12-31T20:17:23.275Z,17.57
2018-12-31T20:20:11.583Z,16.67
2018-12-31T20:23:00.043Z,16.20
2018-12-31T20:25:48.617Z,15.80
2018-12-31T20:28:36.660Z,14.97
2018-12-31T20:31:24.881Z,14.87
2018-12-31T20:34:13.384Z,15.70
2018-12-31T20:37:01.872Z,14.53
2018-12-31T20:39:50.034Z,16.07
2018-12-31T20:42:38.216Z,18.53
2018-12-31T20:45:26.398Z,20.57
2018-12-31T20:48:14.854Z,19.37
2018-12-31T20:51:02.963Z,22.60
2018-12-31T20:53:51.590Z,23.70
2018-12-31T20:56:40.050Z,22.43
2018-12-31T20:59:28.522Z,24.43
2018-12-31T21:02:16.892Z,20.50
2018-12-31T21:05:05.277Z,20.60
2018-12-31T21:07:53.797Z,20.97
2018-12-31T21:10:41.921Z,21.50
2018-12-31T21:13:30.272Z,22.07
2018-12-31T21:16:23.066Z,15.67
2018-12-31T21:19:11.802Z,20.30
2018-12-31T21:22:00.171Z,21.87
2018-12-31T21:24:48.396Z,23.00
2018-12-31T21:27:36.917Z,19.20
2018-12-31T21:30:25.407Z,22.13
2018-12-31T21:33:13.667Z,22.17
2018-12-31T21:36:01.684Z,44.83
2018-12-31T21:38:49.835Z,22.50
2018-12-31T21:41:38.091Z,20.93
2018-12-31T21:44:26.708Z,19.20
2018-12-31T21:47:15.063Z,20.53
2018-12-31T21:50:03.356Z,23.77
2018-12-31T21:52:51.484Z,23.23
2018-12-31T21:55:39.768Z,24.27
2018-12-31T21:58:28.376Z,25.97
2018-12-31T22:01:16.731Z,24.83
2018-12-31T22:04:05.296Z,37.90
2018-12-31T22:06:53.423Z,36.50
2018-12-31T22:09:41.839Z,42.97
2018-12-31T22:12:30.195Z,28.13
2018-12-31T22:15:24.579Z,27.63
2018-12-31T22:18:12.901Z,24.80
2018-12-31T22:21:01.084Z,23.83
2018-12-31T22:23:50.093Z,20.07
2018-12-31T22:26:38.247Z,23.47
2018-12-31T22:29:26.018Z,23.40
2018-12-31T22:32:14.427Z,23.47
2018-12-31T22:35:02.812Z,22.97
2018-12-31T22:37:52.698Z,21.60
2018-12-31T22:40:41.383Z,21.03
2018-12-31T22:43:29.901Z,17.87
2018-12-31T22:46:18.085Z,18.43
2018-12-31T22:49:06.417Z,21.23
2018-12-31T22:51:54.741Z,15.70
2018-12-31T22:54:43.075Z,16.90
2018-12-31T22:57:31.422Z,18.27
2018-12-31T23:00:23.622Z,16.53
2018-12-31T23:03:12.166Z,17.30
2018-12-31T23:06:00.619Z,18.20
2018-12-31T23:08:49.053Z,18.43
2018-12-31T23:11:37.109Z,18.43
2018-12-31T23:14:25.251Z,19.13
2018-12-31T23:17:16.147Z,19.27
2018-12-31T23:20:04.758Z,19.30
2018-12-31T23:22:53.444Z,20.83
2018-12-31T23:25:41.822Z,23.23
2018-12-31T23:28:29.829Z,22.53
2018-12-31T23:31:18.252Z,20.37
2018-12-31T23:34:06.814Z,22.70
2018-12-31T23:36:55.279Z,24.53
2018-12-31T23:39:42.962Z,25.40
2018-12-31T23:42:31.327Z,24.97
2018-12-31T23:45:19.652Z,27.50
2018-12-31T23:48:08.022Z,26.47
2018-12-31T23:50:56.044Z,22.40
2018-12-31T23:53:43.926Z,19.97
2018-12-31T23:56:32.196Z,20.00
2018-12-31T23:59:20.745Z,22.10
